createdAt,value
2017-10-08T01:36:38.469Z,1008.95
2017-10-08T01:36:39.042Z,1008.94
2017-10-08T01:36:39.643Z,1008.98
2017-10-08T01:36:40.240Z,1008.96
2017-10-08T01:36:40.840Z,1009.00
2017-10-08T01:36:41.440Z,1008.99
2017-10-08T01:36:42.043Z,1008.96
2017-10-08T01:36:42.640Z,1008.98
2017-10-08T01:37:36.119Z,1008.96
2017-10-08T01:37:36.694Z,1008.99
2017-10-08T01:37:37.293Z,1008.97
2017-10-08T01:37:37.893Z,1009.00
2017-10-08T01:37:38.492Z,1008.96
2017-10-08T01:37:39.101Z,1008.99
2017-10-08T01:37:39.695Z,1008.97
2017-10-08T01:37:40.294Z,1009.01
2017-10-08T01:38:34.794Z,1008.95
2017-10-08T01:38:35.369Z,1008.97
2017-10-08T01:38:35.967Z,1008.98
2017-10-08T01:38:36.568Z,1008.98
2017-10-08T01:38:37.167Z,1009.00
2017-10-08T01:38:37.769Z,1008.96
2017-10-08T01:38:38.368Z,1008.98
2017-10-08T01:38:38.967Z,1008.98
2017-10-08T01:39:32.448Z,1008.93
2017-10-08T01:39:33.022Z,1008.94
2017-10-08T01:39:33.620Z,1008.95
2017-10-08T01:39:34.220Z,1008.98
2017-10-08T01:39:34.822Z,1008.97
2017-10-08T01:39:35.420Z,1008.98
2017-10-08T01:39:36.021Z,1008.96
2017-10-08T01:39:36.621Z,1008.96
2017-10-08T01:40:30.109Z,1008.98
2017-10-08T01:40:30.675Z,1008.98
2017-10-08T01:40:31.276Z,1009.00
2017-10-08T01:40:31.874Z,1009.01
2017-10-08T01:40:32.475Z,1008.99
2017-10-08T01:40:33.073Z,1009.05
2017-10-08T01:40:33.673Z,1009.04
2017-10-08T01:40:34.274Z,1009.00
2017-10-08T01:41:27.751Z,1008.99
2017-10-08T01:41:28.326Z,1008.98
2017-10-08T01:41:28.924Z,1009.03
2017-10-08T01:41:29.525Z,1009.03
2017-10-08T01:41:30.126Z,1009.03
2017-10-08T01:41:30.725Z,1008.99
2017-10-08T01:41:31.324Z,1008.99
2017-10-08T01:41:31.925Z,1008.97
2017-10-08T01:42:25.404Z,1009.05
2017-10-08T01:42:25.978Z,1009.05
2017-10-08T01:42:26.577Z,1009.04
2017-10-08T01:42:27.178Z,1009.03
2017-10-08T01:42:27.777Z,1009.04
2017-10-08T01:42:28.378Z,1009.06
2017-10-08T01:42:28.977Z,1009.06
2017-10-08T01:42:29.576Z,1009.06
2017-10-08T01:43:23.056Z,1009.01
2017-10-08T01:43:23.630Z,1008.99
2017-10-08T01:43:24.229Z,1008.99
2017-10-08T01:43:24.829Z,1008.98
2017-10-08T01:43:25.429Z,1008.99
2017-10-08T01:43:26.030Z,1008.99
2017-10-08T01:43:26.628Z,1008.95
2017-10-08T01:43:27.228Z,1008.95
2017-10-08T01:44:20.706Z,1008.98
2017-10-08T01:44:21.282Z,1008.96
2017-10-08T01:44:21.884Z,1008.98
2017-10-08T01:44:22.482Z,1009.02
2017-10-08T01:44:23.085Z,1009.02
2017-10-08T01:44:23.683Z,1009.01
2017-10-08T01:44:24.282Z,1008.97
2017-10-08T01:44:24.881Z,1008.99
2017-10-08T01:45:19.382Z,1008.97
2017-10-08T01:45:19.957Z,1009.02
2017-10-08T01:45:20.558Z,1008.98
2017-10-08T01:45:21.156Z,1008.98
2017-10-08T01:45:21.756Z,1008.95
2017-10-08T01:45:22.356Z,1008.98
2017-10-08T01:45:22.956Z,1008.98
2017-10-08T01:45:23.556Z,1008.98
2017-10-08T01:46:18.062Z,1008.96
2017-10-08T01:46:18.633Z,1008.97
2017-10-08T01:46:19.233Z,1008.94
2017-10-08T01:46:19.832Z,1008.95
2017-10-08T01:46:20.432Z,1008.95
2017-10-08T01:46:21.032Z,1008.96
2017-10-08T01:46:21.636Z,1008.98
2017-10-08T01:46:22.232Z,1008.99
2017-10-08T01:47:15.711Z,1008.97
2017-10-08T01:47:16.288Z,1008.98
2017-10-08T01:47:16.886Z,1008.94
2017-10-08T01:47:17.485Z,1009.00
2017-10-08T01:47:18.085Z,1008.96
2017-10-08T01:47:18.686Z,1008.97
2017-10-08T01:47:19.284Z,1008.98
2017-10-08T01:47:19.884Z,1008.97
2017-10-08T01:48:14.387Z,1008.97
2017-10-08T01:48:14.960Z,1008.96
2017-10-08T01:48:15.559Z,1008.95
2017-10-08T01:48:16.160Z,1008.98
2017-10-08T01:48:16.761Z,1008.98
2017-10-08T01:48:17.360Z,1008.93
2017-10-08T01:48:17.960Z,1009.00
2017-10-08T01:48:18.560Z,1008.98
2017-10-08T01:49:12.038Z,1008.96
2017-10-08T01:49:12.613Z,1008.97
2017-10-08T01:49:13.213Z,1009.00
2017-10-08T01:49:13.813Z,1008.96
2017-10-08T01:49:14.412Z,1008.98
2017-10-08T01:49:15.012Z,1008.96
2017-10-08T01:49:15.611Z,1008.99
2017-10-08T01:49:16.212Z,1008.99
2017-10-08T01:50:10.716Z,1009.02
2017-10-08T01:50:11.288Z,1009.01
2017-10-08T01:50:11.892Z,1008.98
2017-10-08T01:50:12.488Z,1008.98
2017-10-08T01:50:13.088Z,1009.00
2017-10-08T01:50:13.689Z,1009.01
2017-10-08T01:50:14.288Z,1009.01
2017-10-08T01:50:14.887Z,1009.03
2017-10-08T01:51:08.366Z,1008.96
2017-10-08T01:51:08.942Z,1008.96
2017-10-08T01:51:09.540Z,1008.99
2017-10-08T01:51:10.140Z,1008.97
2017-10-08T01:51:10.740Z,1008.97
2017-10-08T01:51:11.342Z,1008.95
2017-10-08T01:51:11.940Z,1008.96
2017-10-08T01:51:12.542Z,1008.99
2017-10-08T01:52:06.017Z,1008.89
2017-10-08T01:52:06.592Z,1008.89
2017-10-08T01:52:07.192Z,1008.90
2017-10-08T01:52:07.793Z,1008.91
2017-10-08T01:52:08.391Z,1008.90
2017-10-08T01:52:08.991Z,1008.88
2017-10-08T01:52:09.594Z,1008.89
2017-10-08T01:52:10.192Z,1008.90
2017-10-08T01:53:03.670Z,1008.98
2017-10-08T01:53:04.243Z,1009.05
2017-10-08T01:53:04.844Z,1009.03
2017-10-08T01:53:05.444Z,1009.03
2017-10-08T01:53:06.043Z,1008.98
2017-10-08T01:53:06.643Z,1009.00
2017-10-08T01:53:07.248Z,1009.00
2017-10-08T01:53:07.842Z,1009.00
2017-10-08T01:54:02.854Z,1008.99
2017-10-08T01:54:03.430Z,1008.98
2017-10-08T01:54:04.029Z,1008.97
2017-10-08T01:54:04.630Z,1008.96
2017-10-08T01:54:05.230Z,1009.00
2017-10-08T01:54:05.830Z,1008.96
2017-10-08T01:54:06.429Z,1008.97
2017-10-08T01:55:00.918Z,1008.95
2017-10-08T01:55:01.491Z,1008.95
2017-10-08T01:55:02.090Z,1008.98
2017-10-08T01:55:02.690Z,1008.95
2017-10-08T01:55:03.290Z,1008.95
2017-10-08T01:55:03.890Z,1008.97
2017-10-08T01:55:04.491Z,1008.97
2017-10-08T01:55:05.090Z,1009.00
2017-10-08T01:55:59.593Z,1008.99
2017-10-08T01:56:00.169Z,1008.99
2017-10-08T01:56:00.771Z,1008.98
2017-10-08T01:56:01.369Z,1008.97
2017-10-08T01:56:01.968Z,1009.01
2017-10-08T01:56:02.567Z,1008.98
2017-10-08T01:56:03.166Z,1009.00
2017-10-08T01:56:03.766Z,1008.94
2017-10-08T01:56:58.269Z,1009.01
2017-10-08T01:56:58.843Z,1008.99
2017-10-08T01:56:59.445Z,1008.99
2017-10-08T01:57:00.044Z,1008.97
2017-10-08T01:57:00.643Z,1009.00
2017-10-08T01:57:01.244Z,1009.04
2017-10-08T01:57:01.844Z,1009.05
2017-10-08T01:57:02.446Z,1009.04
2017-10-08T01:57:55.921Z,1008.98
2017-10-08T01:57:56.495Z,1008.98
2017-10-08T01:57:57.095Z,1008.97
2017-10-08T01:57:57.696Z,1009.00
2017-10-08T01:57:58.296Z,1008.97
2017-10-08T01:57:58.897Z,1008.97
2017-10-08T01:57:59.495Z,1009.00
2017-10-08T01:58:00.095Z,1008.99
2017-10-08T01:58:54.598Z,1008.94
2017-10-08T01:58:55.171Z,1008.94
2017-10-08T01:58:55.772Z,1008.93
2017-10-08T01:58:56.371Z,1008.94
2017-10-08T01:58:56.974Z,1008.95
2017-10-08T01:58:57.570Z,1008.95
2017-10-08T01:58:58.170Z,1008.93
2017-10-08T01:58:58.771Z,1008.98
2017-10-08T01:59:53.274Z,1008.96
2017-10-08T01:59:53.845Z,1008.99
2017-10-08T01:59:54.447Z,1009.00
2017-10-08T01:59:55.045Z,1008.99
2017-10-08T01:59:55.645Z,1008.99
2017-10-08T01:59:56.245Z,1008.97
2017-10-08T01:59:56.846Z,1008.96
2017-10-08T01:59:57.448Z,1008.96
2017-10-08T02:00:51.951Z,1008.97
2017-10-08T02:00:52.522Z,1008.97
2017-10-08T02:00:53.122Z,1008.94
2017-10-08T02:00:53.723Z,1008.97
2017-10-08T02:00:54.321Z,1008.96
2017-10-08T02:00:54.920Z,1008.94
2017-10-08T02:00:55.521Z,1008.97
2017-10-08T02:00:56.122Z,1008.95
2017-10-08T02:01:50.624Z,1008.97
2017-10-08T02:01:51.200Z,1008.98
2017-10-08T02:01:51.799Z,1008.99
2017-10-08T02:01:52.398Z,1008.98
2017-10-08T02:01:52.998Z,1008.99
2017-10-08T02:01:53.597Z,1008.98
2017-10-08T02:01:54.197Z,1008.99
2017-10-08T02:01:54.797Z,1009.01
2017-10-08T02:02:51.345Z,1009.00
2017-10-08T02:02:51.922Z,1009.00
2017-10-08T02:02:52.521Z,1009.01
2017-10-08T02:03:46.029Z,1009.00
2017-10-08T02:03:46.604Z,1008.98
2017-10-08T02:03:47.202Z,1009.02
2017-10-08T02:03:47.803Z,1008.99
2017-10-08T02:03:48.405Z,1009.01
2017-10-08T02:03:49.002Z,1009.01
2017-10-08T02:03:49.602Z,1009.02
2017-10-08T02:03:50.203Z,1009.02
2017-10-08T02:05:15.843Z,1009.00
2017-10-08T02:05:16.408Z,1008.99
2017-10-08T02:05:17.009Z,1009.02
2017-10-08T02:05:17.609Z,1009.04
2017-10-08T02:05:18.209Z,1009.03
2017-10-08T02:06:12.258Z,1009.01
2017-10-08T02:06:12.833Z,1009.01
2017-10-08T02:06:13.432Z,1009.05
2017-10-08T02:06:14.032Z,1009.03
2017-10-08T02:06:14.633Z,1009.04
2017-10-08T02:06:15.233Z,1009.05
2017-10-08T02:06:15.831Z,1009.07
2017-10-08T02:06:16.432Z,1009.01
2017-10-08T02:07:10.935Z,1009.10
2017-10-08T02:07:11.507Z,1009.07
2017-10-08T02:07:12.114Z,1009.06
2017-10-08T02:07:12.708Z,1009.05
2017-10-08T02:07:13.307Z,1009.09
2017-10-08T02:07:13.909Z,1009.07
2017-10-08T02:07:14.507Z,1009.03
2017-10-08T02:07:15.112Z,1009.04
2017-10-08T02:08:08.584Z,1009.06
2017-10-08T02:08:09.158Z,1009.04
2017-10-08T02:08:09.760Z,1009.01
2017-10-08T02:08:10.359Z,1009.04
2017-10-08T02:08:10.957Z,1009.04
2017-10-08T02:08:11.561Z,1009.03
2017-10-08T02:08:12.160Z,1009.05
2017-10-08T02:08:12.757Z,1009.04
2017-10-08T02:09:06.748Z,1009.02
2017-10-08T02:09:07.330Z,1009.02
2017-10-08T02:09:07.921Z,1009.01
2017-10-08T02:09:08.521Z,1009.05
2017-10-08T02:09:09.122Z,1009.02
2017-10-08T02:09:09.725Z,1009.03
2017-10-08T02:09:10.324Z,1009.02
2017-10-08T02:10:04.809Z,1008.99
2017-10-08T02:10:05.383Z,1009.00
2017-10-08T02:10:05.982Z,1009.01
2017-10-08T02:10:06.582Z,1009.02
2017-10-08T02:10:07.182Z,1009.03
2017-10-08T02:10:07.781Z,1009.02
2017-10-08T02:10:08.381Z,1009.01
2017-10-08T02:10:08.982Z,1009.06
2017-10-08T02:11:02.463Z,1008.98
2017-10-08T02:11:03.040Z,1009.02
2017-10-08T02:11:03.641Z,1009.04
2017-10-08T02:11:04.237Z,1009.01
2017-10-08T02:11:04.835Z,1009.04
2017-10-08T02:11:05.438Z,1009.01
2017-10-08T02:11:06.036Z,1009.06
2017-10-08T02:11:06.636Z,1009.04
2017-10-08T02:12:00.113Z,1009.05
2017-10-08T02:12:00.687Z,1009.04
2017-10-08T02:12:01.287Z,1009.06
2017-10-08T02:12:01.887Z,1009.05
2017-10-08T02:12:02.487Z,1009.08
2017-10-08T02:12:03.089Z,1009.06
2017-10-08T02:12:03.690Z,1009.04
2017-10-08T02:12:04.287Z,1009.13
2017-10-08T02:12:57.765Z,1009.07
2017-10-08T02:12:58.340Z,1009.05
2017-10-08T02:12:58.940Z,1009.03
2017-10-08T02:12:59.541Z,1009.08
2017-10-08T02:13:00.140Z,1009.05
2017-10-08T02:13:00.741Z,1009.06
2017-10-08T02:13:01.339Z,1009.03
2017-10-08T02:13:01.939Z,1009.06
2017-10-08T02:13:56.441Z,1009.09
2017-10-08T02:13:57.016Z,1009.04
2017-10-08T02:13:57.615Z,1009.07
2017-10-08T02:13:58.216Z,1009.07
2017-10-08T02:13:58.829Z,1009.06
2017-10-08T02:13:59.416Z,1009.07
2017-10-08T02:14:00.015Z,1009.05
2017-10-08T02:14:00.613Z,1009.04
2017-10-08T02:14:55.117Z,1009.07
2017-10-08T02:14:55.692Z,1009.07
2017-10-08T02:14:56.290Z,1009.05
2017-10-08T02:14:56.891Z,1009.11
2017-10-08T02:14:57.490Z,1009.09
2017-10-08T02:14:58.092Z,1009.07
2017-10-08T02:14:58.689Z,1009.09
2017-10-08T02:14:59.290Z,1009.06
2017-10-08T02:15:52.767Z,1009.10
2017-10-08T02:15:53.343Z,1009.12
2017-10-08T02:15:53.946Z,1009.07
2017-10-08T02:15:54.544Z,1009.07
2017-10-08T02:15:55.143Z,1009.08
2017-10-08T02:15:55.746Z,1009.08
2017-10-08T02:15:56.343Z,1009.13
2017-10-08T02:15:56.942Z,1009.11
2017-10-08T02:16:51.446Z,1009.12
2017-10-08T02:16:52.018Z,1009.14
2017-10-08T02:16:52.617Z,1009.14
2017-10-08T02:16:53.217Z,1009.11
2017-10-08T02:16:53.818Z,1009.14
2017-10-08T02:16:54.417Z,1009.14
2017-10-08T02:16:55.017Z,1009.11
2017-10-08T02:16:55.616Z,1009.13
2017-10-08T02:17:49.095Z,1009.14
2017-10-08T02:17:49.669Z,1009.16
2017-10-08T02:17:50.270Z,1009.14
2017-10-08T02:17:50.870Z,1009.14
2017-10-08T02:17:51.471Z,1009.15
2017-10-08T02:17:52.071Z,1009.11
2017-10-08T02:17:52.669Z,1009.10
2017-10-08T02:17:53.276Z,1009.14
2017-10-08T02:18:47.772Z,1009.15
2017-10-08T02:18:48.345Z,1009.16
2017-10-08T02:18:48.944Z,1009.11
2017-10-08T02:18:49.544Z,1009.14
2017-10-08T02:18:50.145Z,1009.14
2017-10-08T02:18:50.744Z,1009.16
2017-10-08T02:18:51.346Z,1009.14
2017-10-08T02:18:51.945Z,1009.17
2017-10-08T02:19:46.448Z,1009.16
2017-10-08T02:19:47.020Z,1009.11
2017-10-08T02:19:47.620Z,1009.12
2017-10-08T02:19:48.222Z,1009.16
2017-10-08T02:19:48.820Z,1009.14
2017-10-08T02:19:49.420Z,1009.15
2017-10-08T02:19:50.021Z,1009.15
2017-10-08T02:19:50.619Z,1009.16
2017-10-08T02:20:44.105Z,1009.13
2017-10-08T02:20:44.672Z,1009.11
2017-10-08T02:20:45.273Z,1009.15
2017-10-08T02:20:45.874Z,1009.13
2017-10-08T02:20:46.473Z,1009.14
2017-10-08T02:20:47.074Z,1009.14
2017-10-08T02:20:47.673Z,1009.17
2017-10-08T02:20:48.273Z,1009.17
2017-10-08T02:21:41.750Z,1009.15
2017-10-08T02:21:42.325Z,1009.15
2017-10-08T02:21:42.925Z,1009.11
2017-10-08T02:21:43.526Z,1009.16
2017-10-08T02:21:44.124Z,1009.15
2017-10-08T02:21:44.725Z,1009.14
2017-10-08T02:21:45.325Z,1009.15
2017-10-08T02:21:45.924Z,1009.14
2017-10-08T02:22:40.426Z,1009.19
2017-10-08T02:22:40.999Z,1009.18
2017-10-08T02:22:41.599Z,1009.18
2017-10-08T02:22:42.199Z,1009.18
2017-10-08T02:22:42.800Z,1009.16
2017-10-08T02:22:43.399Z,1009.19
2017-10-08T02:22:44.002Z,1009.18
2017-10-08T02:22:44.598Z,1009.18
2017-10-08T02:23:38.078Z,1009.17
2017-10-08T02:23:38.652Z,1009.18
2017-10-08T02:23:39.251Z,1009.16
2017-10-08T02:23:39.853Z,1009.15
2017-10-08T02:23:40.452Z,1009.16
2017-10-08T02:23:41.052Z,1009.18
2017-10-08T02:23:41.651Z,1009.18
2017-10-08T02:23:42.252Z,1009.17
2017-10-08T02:24:35.729Z,1009.17
2017-10-08T02:24:36.303Z,1009.15
2017-10-08T02:24:36.903Z,1009.19
2017-10-08T02:24:37.504Z,1009.18
2017-10-08T02:24:38.103Z,1009.19
2017-10-08T02:24:38.704Z,1009.16
2017-10-08T02:24:39.303Z,1009.17
2017-10-08T02:24:39.902Z,1009.18
2017-10-08T02:25:33.381Z,1009.19
2017-10-08T02:25:33.954Z,1009.18
2017-10-08T02:25:34.559Z,1009.17
2017-10-08T02:25:35.155Z,1009.17
2017-10-08T02:25:35.753Z,1009.13
2017-10-08T02:25:36.360Z,1009.15
2017-10-08T02:25:36.953Z,1009.17
2017-10-08T02:25:37.553Z,1009.16
2017-10-08T02:26:32.057Z,1009.23
2017-10-08T02:26:32.630Z,1009.22
2017-10-08T02:26:33.230Z,1009.24
2017-10-08T02:26:33.829Z,1009.24
2017-10-08T02:26:34.431Z,1009.23
2017-10-08T02:26:35.031Z,1009.22
2017-10-08T02:26:35.630Z,1009.19
2017-10-08T02:26:36.230Z,1009.24
2017-10-08T02:27:29.708Z,1009.22
2017-10-08T02:27:30.282Z,1009.17
2017-10-08T02:27:30.882Z,1009.18
2017-10-08T02:27:31.482Z,1009.17
2017-10-08T02:27:32.080Z,1009.19
2017-10-08T02:27:32.684Z,1009.23
2017-10-08T02:27:33.282Z,1009.16
2017-10-08T02:27:33.881Z,1009.19
2017-10-08T02:28:28.388Z,1009.24
2017-10-08T02:28:28.957Z,1009.25
2017-10-08T02:28:29.557Z,1009.19
2017-10-08T02:28:30.157Z,1009.22
2017-10-08T02:28:30.757Z,1009.24
2017-10-08T02:28:31.358Z,1009.23
2017-10-08T02:28:31.956Z,1009.22
2017-10-08T02:28:32.557Z,1009.20
2017-10-08T02:29:27.060Z,1009.27
2017-10-08T02:29:27.633Z,1009.28
2017-10-08T02:29:28.233Z,1009.27
2017-10-08T02:29:28.832Z,1009.27
2017-10-08T02:29:29.432Z,1009.27
2017-10-08T02:29:30.034Z,1009.24
2017-10-08T02:29:30.636Z,1009.24
2017-10-08T02:29:31.233Z,1009.26
2017-10-08T02:30:25.735Z,1009.24
2017-10-08T02:30:26.309Z,1009.25
2017-10-08T02:30:26.909Z,1009.26
2017-10-08T02:30:27.510Z,1009.26
2017-10-08T02:30:28.107Z,1009.22
2017-10-08T02:30:28.711Z,1009.25
2017-10-08T02:30:29.308Z,1009.26
2017-10-08T02:30:29.912Z,1009.25
2017-10-08T02:31:23.391Z,1009.22
2017-10-08T02:31:23.962Z,1009.23
2017-10-08T02:31:24.561Z,1009.24
2017-10-08T02:31:25.166Z,1009.20
2017-10-08T02:31:25.763Z,1009.22
2017-10-08T02:31:26.362Z,1009.25
2017-10-08T02:31:26.961Z,1009.22
2017-10-08T02:31:27.562Z,1009.23
2017-10-08T02:32:21.039Z,1009.24
2017-10-08T02:32:21.613Z,1009.25
2017-10-08T02:32:22.211Z,1009.30
2017-10-08T02:32:22.812Z,1009.22
2017-10-08T02:32:23.415Z,1009.27
2017-10-08T02:32:24.014Z,1009.26
2017-10-08T02:32:24.612Z,1009.23
2017-10-08T02:32:25.212Z,1009.26
2017-10-08T02:33:21.249Z,1009.28
2017-10-08T02:33:21.824Z,1009.28
2017-10-08T02:33:22.422Z,1009.27
2017-10-08T02:33:23.026Z,1009.25
2017-10-08T02:33:23.624Z,1009.25
2017-10-08T02:33:24.224Z,1009.27
2017-10-08T02:50:56.996Z,1009.60
2017-10-08T02:50:57.577Z,1009.59
2017-10-08T02:50:58.170Z,1009.60
2017-10-08T02:50:58.770Z,1009.57
2017-10-08T02:50:59.369Z,1009.57
2017-10-08T02:50:59.968Z,1009.55
2017-10-08T02:51:00.570Z,1009.59
2017-10-08T02:51:01.168Z,1009.56
2017-10-08T02:51:55.672Z,1009.56
2017-10-08T02:51:56.247Z,1009.54
2017-10-08T02:51:56.846Z,1009.53
2017-10-08T02:51:57.446Z,1009.54
2017-10-08T02:51:58.047Z,1009.52
2017-10-08T02:51:58.646Z,1009.57
2017-10-08T02:51:59.245Z,1009.55
2017-10-08T02:51:59.847Z,1009.57
2017-10-08T02:52:53.325Z,1009.54
2017-10-08T02:52:53.899Z,1009.55
2017-10-08T02:52:54.504Z,1009.53
2017-10-08T02:52:55.099Z,1009.58
2017-10-08T02:52:55.699Z,1009.55
2017-10-08T02:52:56.303Z,1009.54
2017-10-08T02:52:56.899Z,1009.52
2017-10-08T02:52:57.499Z,1009.53
2017-10-08T02:53:52.004Z,1009.57
2017-10-08T02:53:52.577Z,1009.58
2017-10-08T02:53:53.178Z,1009.56
2017-10-08T02:53:53.774Z,1009.57
2017-10-08T02:53:54.374Z,1009.58
2017-10-08T02:53:54.975Z,1009.56
2017-10-08T02:53:55.575Z,1009.59
2017-10-08T02:53:56.174Z,1009.58
2017-10-08T02:54:49.653Z,1009.56
2017-10-08T02:54:50.227Z,1009.61
2017-10-08T02:54:50.827Z,1009.58
2017-10-08T02:54:51.427Z,1009.58
2017-10-08T02:54:52.028Z,1009.60
2017-10-08T02:54:52.628Z,1009.58
2017-10-08T02:54:53.231Z,1009.58
2017-10-08T02:54:53.828Z,1009.61
2017-10-08T02:55:48.330Z,1009.63
2017-10-08T02:55:48.904Z,1009.62
2017-10-08T02:55:49.505Z,1009.60
2017-10-08T02:55:50.104Z,1009.63
2017-10-08T02:55:50.704Z,1009.65
2017-10-08T02:55:51.303Z,1009.61
2017-10-08T02:55:51.903Z,1009.61
2017-10-08T02:55:52.503Z,1009.59
2017-10-08T02:56:45.982Z,1009.67
2017-10-08T02:56:46.556Z,1009.69
2017-10-08T02:56:47.157Z,1009.70
2017-10-08T02:56:47.757Z,1009.71
2017-10-08T02:56:48.361Z,1009.69
2017-10-08T02:56:48.957Z,1009.69
2017-10-08T02:56:49.554Z,1009.68
2017-10-08T02:56:50.155Z,1009.67
2017-10-08T02:57:43.641Z,1009.66
2017-10-08T02:57:44.208Z,1009.65
2017-10-08T02:57:44.810Z,1009.64
2017-10-08T02:57:45.407Z,1009.63
2017-10-08T02:57:46.009Z,1009.66
2017-10-08T02:57:46.608Z,1009.65
2017-10-08T02:57:47.209Z,1009.66
2017-10-08T02:57:47.809Z,1009.66
2017-10-08T02:58:42.310Z,1009.68
2017-10-08T02:58:42.884Z,1009.72
2017-10-08T02:58:43.485Z,1009.73
2017-10-08T02:58:44.083Z,1009.69
2017-10-08T02:58:44.687Z,1009.74
2017-10-08T02:58:45.283Z,1009.71
2017-10-08T02:58:45.884Z,1009.71
2017-10-08T02:58:46.483Z,1009.71
2017-10-08T02:59:39.961Z,1009.70
2017-10-08T02:59:40.537Z,1009.72
2017-10-08T02:59:41.136Z,1009.73
2017-10-08T02:59:41.735Z,1009.74
2017-10-08T02:59:42.336Z,1009.72
2017-10-08T02:59:42.935Z,1009.74
2017-10-08T02:59:43.535Z,1009.71
2017-10-08T02:59:44.136Z,1009.73
2017-10-08T03:00:38.638Z,1009.70
2017-10-08T03:00:39.210Z,1009.71
2017-10-08T03:00:39.815Z,1009.70
2017-10-08T03:00:40.410Z,1009.73
2017-10-08T03:00:41.010Z,1009.72
2017-10-08T03:00:41.609Z,1009.68
2017-10-08T03:00:42.211Z,1009.71
2017-10-08T03:00:42.809Z,1009.70
2017-10-08T03:01:36.288Z,1009.71
2017-10-08T03:01:36.863Z,1009.69
2017-10-08T03:01:37.464Z,1009.68
2017-10-08T03:01:38.062Z,1009.69
2017-10-08T03:01:38.662Z,1009.72
2017-10-08T03:01:39.263Z,1009.70
2017-10-08T03:01:39.863Z,1009.73
2017-10-08T03:01:40.462Z,1009.71
2017-10-08T03:02:33.939Z,1009.72
2017-10-08T03:02:34.515Z,1009.73
2017-10-08T03:02:35.115Z,1009.75
2017-10-08T03:02:35.715Z,1009.72
2017-10-08T03:02:36.315Z,1009.72
2017-10-08T03:02:36.917Z,1009.73
2017-10-08T03:02:37.514Z,1009.74
2017-10-08T03:02:38.116Z,1009.73
2017-10-08T03:03:31.591Z,1009.71
2017-10-08T03:03:32.167Z,1009.72
2017-10-08T03:03:32.767Z,1009.73
2017-10-08T03:03:33.367Z,1009.73
2017-10-08T03:03:33.967Z,1009.74
2017-10-08T03:03:34.566Z,1009.72
2017-10-08T03:03:35.166Z,1009.71
2017-10-08T03:03:35.768Z,1009.71
2017-10-08T03:04:30.270Z,1009.74
2017-10-08T03:04:30.841Z,1009.75
2017-10-08T03:04:31.441Z,1009.72
2017-10-08T03:04:32.041Z,1009.74
2017-10-08T03:04:32.639Z,1009.72
2017-10-08T03:04:33.242Z,1009.73
2017-10-08T03:04:33.841Z,1009.72
2017-10-08T03:04:34.440Z,1009.72
2017-10-08T03:05:28.944Z,1009.72
2017-10-08T03:05:29.517Z,1009.73
2017-10-08T03:05:30.116Z,1009.76
2017-10-08T03:05:30.717Z,1009.72
2017-10-08T03:05:31.317Z,1009.75
2017-10-08T03:05:31.916Z,1009.75
2017-10-08T03:05:32.516Z,1009.72
2017-10-08T03:05:33.116Z,1009.73
2017-10-08T03:06:27.620Z,1009.74
2017-10-08T03:06:28.193Z,1009.76
2017-10-08T03:06:28.793Z,1009.75
2017-10-08T03:06:29.396Z,1009.80
2017-10-08T03:06:29.995Z,1009.77
2017-10-08T03:06:30.593Z,1009.73
2017-10-08T03:06:31.193Z,1009.72
2017-10-08T03:06:31.795Z,1009.75
2017-10-08T03:07:26.296Z,1009.76
2017-10-08T03:07:26.868Z,1009.79
2017-10-08T03:07:27.469Z,1009.80
2017-10-08T03:07:28.067Z,1009.77
2017-10-08T03:07:28.667Z,1009.80
2017-10-08T03:07:29.267Z,1009.76
2017-10-08T03:07:29.867Z,1009.78
2017-10-08T03:07:30.470Z,1009.78
2017-10-08T03:08:24.971Z,1009.78
2017-10-08T03:08:25.544Z,1009.76
2017-10-08T03:08:26.144Z,1009.80
2017-10-08T03:08:26.744Z,1009.78
2017-10-08T03:08:27.344Z,1009.80
2017-10-08T03:08:27.943Z,1009.79
2017-10-08T03:08:28.544Z,1009.78
2017-10-08T03:08:29.145Z,1009.80
2017-10-08T03:09:23.646Z,1009.77
2017-10-08T03:09:24.222Z,1009.79
2017-10-08T03:09:24.819Z,1009.73
2017-10-08T03:09:25.420Z,1009.73
2017-10-08T03:09:26.023Z,1009.78
2017-10-08T03:09:26.618Z,1009.77
2017-10-08T03:09:27.219Z,1009.78
2017-10-08T03:09:27.820Z,1009.77
2017-10-08T03:10:21.298Z,1009.77
2017-10-08T03:10:21.874Z,1009.78
2017-10-08T03:10:22.474Z,1009.79
2017-10-08T03:10:23.084Z,1009.78
2017-10-08T03:10:23.672Z,1009.81
2017-10-08T03:10:24.275Z,1009.81
2017-10-08T03:10:24.873Z,1009.78
2017-10-08T03:10:25.472Z,1009.79
2017-10-08T03:11:18.950Z,1009.78
2017-10-08T03:11:19.525Z,1009.74
2017-10-08T03:11:20.125Z,1009.76
2017-10-08T03:11:20.724Z,1009.77
2017-10-08T03:11:21.323Z,1009.75
2017-10-08T03:11:21.925Z,1009.79
2017-10-08T03:11:22.525Z,1009.75
2017-10-08T03:11:23.124Z,1009.77
2017-10-08T03:12:16.601Z,1009.83
2017-10-08T03:12:17.176Z,1009.80
2017-10-08T03:12:17.775Z,1009.81
2017-10-08T03:12:18.377Z,1009.81
2017-10-08T03:12:18.975Z,1009.80
2017-10-08T03:12:19.577Z,1009.76
2017-10-08T03:12:20.175Z,1009.79
2017-10-08T03:12:20.775Z,1009.81
2017-10-08T03:13:15.281Z,1009.81
2017-10-08T03:13:15.851Z,1009.80
2017-10-08T03:13:16.449Z,1009.80
2017-10-08T03:13:17.049Z,1009.77
2017-10-08T03:13:17.649Z,1009.78
2017-10-08T03:13:18.249Z,1009.79
2017-10-08T03:13:18.849Z,1009.81
2017-10-08T03:13:19.449Z,1009.82
2017-10-08T03:14:12.929Z,1009.83
2017-10-08T03:14:13.504Z,1009.82
2017-10-08T03:14:14.105Z,1009.78
2017-10-08T03:14:14.702Z,1009.83
2017-10-08T03:14:15.303Z,1009.83
2017-10-08T03:14:15.908Z,1009.80
2017-10-08T03:14:16.503Z,1009.82
2017-10-08T03:14:17.102Z,1009.84
2017-10-08T03:15:10.581Z,1009.82
2017-10-08T03:15:11.155Z,1009.84
2017-10-08T03:15:11.755Z,1009.83
2017-10-08T03:15:12.356Z,1009.84
2017-10-08T03:15:12.958Z,1009.83
2017-10-08T03:15:13.556Z,1009.83
2017-10-08T03:15:14.158Z,1009.85
2017-10-08T03:15:14.754Z,1009.83
2017-10-08T03:16:09.258Z,1009.90
2017-10-08T03:16:09.832Z,1009.90
2017-10-08T03:16:10.430Z,1009.90
2017-10-08T03:16:11.030Z,1009.88
2017-10-08T03:16:11.629Z,1009.90
2017-10-08T03:16:12.228Z,1009.91
2017-10-08T03:16:12.829Z,1009.89
2017-10-08T03:16:13.429Z,1009.91
2017-10-08T03:17:06.907Z,1009.88
2017-10-08T03:17:07.482Z,1009.87
2017-10-08T03:17:08.083Z,1009.87
2017-10-08T03:17:08.682Z,1009.91
2017-10-08T03:17:09.282Z,1009.88
2017-10-08T03:17:09.883Z,1009.86
2017-10-08T03:17:10.483Z,1009.89
2017-10-08T03:17:11.084Z,1009.91
2017-10-08T03:18:05.586Z,1009.89
2017-10-08T03:18:06.158Z,1009.88
2017-10-08T03:18:06.757Z,1009.90
2017-10-08T03:18:07.357Z,1009.90
2017-10-08T03:18:07.957Z,1009.90
2017-10-08T03:18:08.557Z,1009.88
2017-10-08T03:18:09.157Z,1009.91
2017-10-08T03:18:09.757Z,1009.88
2017-10-08T03:19:04.261Z,1009.91
2017-10-08T03:19:04.834Z,1009.92
2017-10-08T03:19:05.434Z,1009.90
2017-10-08T03:19:06.033Z,1009.90
2017-10-08T03:19:06.633Z,1009.94
2017-10-08T03:19:07.232Z,1009.91
2017-10-08T03:19:07.833Z,1009.90
2017-10-08T03:19:08.432Z,1009.89
2017-10-08T03:20:01.913Z,1009.98
2017-10-08T03:20:02.485Z,1009.97
2017-10-08T03:20:03.085Z,1010.00
2017-10-08T03:20:03.685Z,1009.96
2017-10-08T03:20:04.285Z,1009.99
2017-10-08T03:20:04.884Z,1009.98
2017-10-08T03:20:05.484Z,1009.98
2017-10-08T03:20:06.084Z,1009.98
2017-10-08T03:20:59.563Z,1009.95
2017-10-08T03:21:00.137Z,1009.91
2017-10-08T03:21:00.738Z,1009.94
2017-10-08T03:21:01.337Z,1009.96
2017-10-08T03:21:01.937Z,1009.96
2017-10-08T03:21:02.537Z,1009.95
2017-10-08T03:21:03.137Z,1009.99
2017-10-08T03:21:03.737Z,1009.94
2017-10-08T03:21:57.214Z,1009.97
2017-10-08T03:21:57.792Z,1009.99
2017-10-08T03:21:58.389Z,1009.98
2017-10-08T03:21:58.989Z,1009.98
2017-10-08T03:21:59.589Z,1009.97
2017-10-08T03:22:00.189Z,1009.96
2017-10-08T03:22:00.789Z,1009.99
2017-10-08T03:22:01.389Z,1009.97
2017-10-08T03:22:55.892Z,1010.02
2017-10-08T03:22:56.466Z,1010.00